CYQD

Details ICAO CYQD (YQD)
Name THE PAS
Region Canada
Timezone America/Winnipeg (UTC-5.0)
Plans Departing 12
Arriving 6
Stats Elevation 887 ft / 270 m (AMSL)
Location 53.971387° -101.091112°
Runways 1
Magnetic Variation 6.090° E
Sunrise 2018-05-22 10:32:11 UTC / 2018-05-22 05:32:11 Local
Sunset 2018-05-23 02:52:47 UTC / 2018-05-22 21:52:47 Local
Advertisement - Login to hide

Runways

ID Width Length Bearing (true) Bearing (mag) Surface Threshold Offset Overrun Length
13 150 ft / 46 m 5,889 ft / 1,795 m 133.44° 127.35° Asphalt 0 ft / 0 m 0 ft / 0 m
31 150 ft / 46 m 5,889 ft / 1,795 m 313.45° 307.36° Asphalt 0 ft / 0 m 0 ft / 0 m

Map

Weather


0- 5 10 15 20 25 30 35+ Temperature / ° C

Clouds and Precipitation
Forecast for 2018-05-23 06:00 UTC. Updated 3 minutes ago

Ground ~20,000 ft ~40,000 ft Winds

METAR

CYQD 230500Z AUTO 13007KT 9SM CLR 14/08 A3001 RMK SLP168

TAF

TAF CYQD 230038Z 2301/2313 04006KT P6SM SCT120 BECMG 2304/2306 13006KT FM230900 VRB03KT P6SM SKC RMK FCST BASED ON AUTO OBS. NXT FCST BY 230700Z

Frequencies

Tower 122.20 MHz MF WINNIPEG RDO
Warning: Do not use this data for real-world aviation or navigation. No guarantee of current accuracy is given.